createdAt,value
2023-01-21T00:01:18.764Z,-1.37
2023-01-21T00:03:46.776Z,-1.40
2023-01-21T00:06:15.390Z,-1.43
2023-01-21T00:08:44.050Z,-1.42
2023-01-21T00:11:14.751Z,-1.42
2023-01-21T00:13:44.176Z,-1.44
2023-01-21T00:16:13.250Z,-1.42
2023-01-21T00:18:42.021Z,-1.39
2023-01-21T00:21:10.399Z,-1.43
2023-01-21T00:23:38.738Z,-1.40
2023-01-21T00:26:08.408Z,-1.41
2023-01-21T00:28:37.825Z,-1.43
2023-01-21T00:31:07.852Z,-1.41
2023-01-21T00:33:37.867Z,-1.43
2023-01-21T00:36:09.472Z,-1.49
2023-01-21T00:38:38.022Z,-1.43
2023-01-21T00:41:08.266Z,-1.41
2023-01-21T00:43:36.454Z,-1.40
2023-01-21T00:46:04.515Z,-1.40
2023-01-21T00:48:32.961Z,-1.38
2023-01-21T00:51:01.210Z,-1.39
2023-01-21T00:53:32.672Z,-1.39
2023-01-21T00:56:01.995Z,-1.41
2023-01-21T00:58:30.958Z,-1.39
2023-01-21T01:01:19.880Z,-1.39
2023-01-21T01:03:49.212Z,-1.41
2023-01-21T01:06:23.227Z,-1.41
2023-01-21T01:08:51.177Z,-1.39
2023-01-21T01:11:21.765Z,-1.41
2023-01-21T01:13:49.662Z,-1.43
2023-01-21T01:16:17.594Z,-1.43
2023-01-21T01:18:46.079Z,-1.45
2023-01-21T01:21:17.349Z,-1.49
2023-01-21T01:23:46.060Z,-1.53
2023-01-21T01:26:21.233Z,-1.58
2023-01-21T01:28:49.316Z,-1.55
2023-01-21T01:31:19.990Z,-1.57
2023-01-21T01:33:48.496Z,-1.51
2023-01-21T01:36:19.656Z,-1.47
2023-01-21T01:38:47.448Z,-1.48
2023-01-21T01:41:19.624Z,-1.46
2023-01-21T01:44:01.320Z,-1.49
2023-01-21T01:46:32.401Z,-1.49
2023-01-21T01:49:00.412Z,-1.44
2023-01-21T01:51:40.343Z,-1.42
2023-01-21T01:54:11.316Z,-1.41
2023-01-21T01:56:43.482Z,-1.38
2023-01-21T01:59:11.790Z,-1.41
2023-01-21T02:01:39.767Z,-1.40
2023-01-21T02:04:14.370Z,-1.37
2023-01-21T02:06:42.950Z,-1.36
2023-01-21T02:09:10.833Z,-1.35
2023-01-21T02:11:39.210Z,-1.35
2023-01-21T02:14:07.870Z,-1.32
2023-01-21T02:16:57.180Z,-1.31
2023-01-21T02:20:00.553Z,-1.28
2023-01-21T02:22:43.682Z,-1.26
2023-01-21T02:25:42.498Z,-1.21
2023-01-21T02:28:19.240Z,-1.19
2023-01-21T02:31:36.469Z,-1.15
2023-01-21T02:34:27.639Z,-1.17
2023-01-21T02:37:15.622Z,-1.15
2023-01-21T02:39:57.446Z,-1.15
2023-01-21T02:42:51.191Z,-1.13
2023-01-21T02:46:07.897Z,-1.10
2023-01-21T02:48:42.429Z,-1.08
2023-01-21T02:51:13.169Z,-1.06
2023-01-21T02:53:40.993Z,-1.03
2023-01-21T02:56:24.940Z,-1.01
2023-01-21T02:59:04.094Z,-0.98
2023-01-21T03:01:41.141Z,-0.98
2023-01-21T03:04:30.096Z,-0.96
2023-01-21T03:07:16.181Z,-0.90
2023-01-21T03:09:44.081Z,-0.87
2023-01-21T03:12:34.992Z,-0.84
2023-01-21T03:15:33.510Z,-0.82
2023-01-21T03:18:05.138Z,-0.83
2023-01-21T03:20:38.148Z,-0.80
2023-01-21T03:23:12.909Z,-0.80
2023-01-21T03:25:41.775Z,-0.77
2023-01-21T03:28:14.185Z,-0.76
2023-01-21T03:30:45.831Z,-0.75
2023-01-21T03:33:15.615Z,-0.74
2023-01-21T03:35:47.653Z,-0.71
2023-01-21T03:38:27.401Z,-0.71
2023-01-21T03:41:01.784Z,-0.71
2023-01-21T03:43:30.096Z,-0.73
2023-01-21T03:46:29.579Z,-0.75
2023-01-21T03:49:02.907Z,-0.76
2023-01-21T03:51:36.741Z,-0.73
2023-01-21T03:54:04.979Z,-0.73
2023-01-21T03:56:32.834Z,-0.73
2023-01-21T03:59:00.658Z,-0.72
2023-01-21T04:01:28.609Z,-0.74
2023-01-21T04:03:56.550Z,-0.74
2023-01-21T04:06:24.429Z,-0.75
2023-01-21T04:08:52.365Z,-0.74
2023-01-21T04:11:20.323Z,-0.73
2023-01-21T04:13:48.450Z,-0.73
2023-01-21T04:16:16.496Z,-0.69
2023-01-21T04:18:44.302Z,-0.68
2023-01-21T04:21:12.302Z,-0.67
2023-01-21T04:23:40.302Z,-0.69
2023-01-21T04:26:08.122Z,-0.67
2023-01-21T04:28:36.149Z,-0.67
2023-01-21T04:31:04.125Z,-0.65
2023-01-21T04:33:32.125Z,-0.61
2023-01-21T04:36:01.133Z,-0.58
2023-01-21T04:38:29.147Z,-0.58
2023-01-21T04:40:57.031Z,-0.59
2023-01-21T04:43:25.006Z,-0.58
2023-01-21T04:45:53.027Z,-0.55
2023-01-21T04:48:21.002Z,-0.53
2023-01-21T04:50:48.921Z,-0.53
2023-01-21T04:53:16.826Z,-0.51
2023-01-21T04:55:44.727Z,-0.47
2023-01-21T04:58:12.669Z,-0.47
2023-01-21T05:00:40.654Z,-0.46
2023-01-21T05:03:08.500Z,-0.42
2023-01-21T05:05:36.501Z,-0.41
2023-01-21T05:08:04.432Z,-0.45
2023-01-21T05:10:32.497Z,-0.43
2023-01-21T05:13:00.407Z,-0.44
2023-01-21T05:15:28.373Z,-0.43
2023-01-21T05:17:56.418Z,-0.46
2023-01-21T05:20:24.613Z,-0.54
2023-01-21T05:22:52.502Z,-0.53
2023-01-21T05:25:20.662Z,-0.50
2023-01-21T05:27:55.694Z,-0.45
2023-01-21T05:30:23.675Z,-0.46
2023-01-21T05:32:55.434Z,-0.48
2023-01-21T05:35:24.404Z,-0.45
2023-01-21T05:37:52.371Z,-0.44
2023-01-21T05:40:20.696Z,-0.45
2023-01-21T05:42:48.867Z,-0.46
2023-01-21T05:45:16.975Z,-0.45
2023-01-21T05:47:44.860Z,-0.44
2023-01-21T05:50:13.582Z,-0.45
2023-01-21T05:52:41.488Z,-0.41
2023-01-21T05:55:09.536Z,-0.43
2023-01-21T05:57:37.484Z,-0.40
2023-01-21T06:00:06.222Z,-0.41
2023-01-21T06:02:34.114Z,-0.40
2023-01-21T06:05:02.511Z,-0.39
2023-01-21T06:07:30.327Z,-0.35
2023-01-21T06:09:58.233Z,-0.34
2023-01-21T06:12:26.197Z,-0.31
2023-01-21T06:14:53.956Z,-0.30
2023-01-21T06:17:22.331Z,-0.28
2023-01-21T06:19:50.472Z,-0.27
2023-01-21T06:22:19.013Z,-0.23
2023-01-21T06:24:46.920Z,-0.20
2023-01-21T06:27:14.870Z,-0.19
2023-01-21T06:29:43.053Z,-0.16
2023-01-21T06:32:11.087Z,-0.13
2023-01-21T06:34:39.223Z,-0.09
2023-01-21T06:37:07.094Z,-0.10
2023-01-21T06:39:35.464Z,-0.06
2023-01-21T06:42:03.341Z,-0.03
2023-01-21T06:44:31.376Z,-0.03
2023-01-21T06:47:01.380Z,0.00
2023-01-21T06:49:29.579Z,0.02
2023-01-21T06:51:57.857Z,0.02
2023-01-21T06:54:26.349Z,0.04
2023-01-21T06:56:55.056Z,0.06
2023-01-21T06:59:22.943Z,0.11
2023-01-21T07:01:50.808Z,0.14
2023-01-21T07:04:18.895Z,0.13
2023-01-21T07:06:46.753Z,0.13
2023-01-21T07:09:14.808Z,0.15
2023-01-21T07:11:42.764Z,0.16
2023-01-21T07:14:10.783Z,0.17
2023-01-21T07:16:39.797Z,0.17
2023-01-21T07:19:07.948Z,0.18
2023-01-21T07:21:35.873Z,0.19
2023-01-21T07:24:03.823Z,0.19
2023-01-21T07:26:36.181Z,0.21
2023-01-21T07:29:06.585Z,0.22
2023-01-21T07:31:34.877Z,0.21
2023-01-21T07:34:02.848Z,0.23
2023-01-21T07:36:30.961Z,0.26
2023-01-21T07:38:59.264Z,0.28
2023-01-21T07:41:27.183Z,0.31
2023-01-21T07:43:54.954Z,0.31
2023-01-21T07:46:23.771Z,0.27
2023-01-21T07:48:52.461Z,0.28
2023-01-21T07:51:21.215Z,0.27
2023-01-21T07:53:49.390Z,0.27
2023-01-21T07:56:18.579Z,0.26
2023-01-21T07:58:47.170Z,0.27
2023-01-21T08:01:15.079Z,0.25
2023-01-21T08:03:42.866Z,0.26
2023-01-21T08:06:10.917Z,0.27
2023-01-21T08:08:38.847Z,0.27
2023-01-21T08:11:06.904Z,0.26
2023-01-21T08:13:34.744Z,0.30
2023-01-21T08:16:02.842Z,0.32
2023-01-21T08:18:30.744Z,0.31
2023-01-21T08:21:00.077Z,0.32
2023-01-21T08:23:28.295Z,0.29
2023-01-21T08:25:56.340Z,0.29
2023-01-21T08:28:24.121Z,0.27
2023-01-21T08:30:52.131Z,0.26
2023-01-21T08:33:20.292Z,0.25
2023-01-21T08:35:48.216Z,0.22
2023-01-21T08:38:16.077Z,0.16
2023-01-21T08:40:43.845Z,0.14
2023-01-21T08:43:11.820Z,0.13
2023-01-21T08:45:39.718Z,0.16
2023-01-21T08:48:07.869Z,0.28
2023-01-21T08:50:35.832Z,0.22
2023-01-21T08:53:03.784Z,0.23
2023-01-21T08:55:31.822Z,0.24
2023-01-21T08:57:59.892Z,0.28
2023-01-21T09:00:27.847Z,0.30
2023-01-21T09:02:55.851Z,0.33
2023-01-21T09:05:23.784Z,0.28
2023-01-21T09:07:51.621Z,0.28
2023-01-21T09:10:38.713Z,0.25
2023-01-21T09:13:08.241Z,0.24
2023-01-21T09:15:40.830Z,0.24
2023-01-21T09:18:09.103Z,0.25
2023-01-21T09:20:37.384Z,0.22
2023-01-21T09:23:24.464Z,0.23
2023-01-21T09:26:03.934Z,0.21
2023-01-21T09:28:37.686Z,0.18
2023-01-21T09:31:14.713Z,0.18
2023-01-21T09:33:47.955Z,0.16
2023-01-21T09:36:19.401Z,0.32
2023-01-21T09:38:48.642Z,0.32
2023-01-21T09:41:27.980Z,0.29
2023-01-21T09:44:03.365Z,0.21
2023-01-21T09:46:40.980Z,0.16
2023-01-21T09:49:28.637Z,0.15
2023-01-21T09:52:35.060Z,0.12
2023-01-21T09:55:05.448Z,0.07
2023-01-21T09:57:42.215Z,0.05
2023-01-21T10:00:43.596Z,0.04
2023-01-21T10:03:34.272Z,0.02
2023-01-21T10:06:09.808Z,-0.01
2023-01-21T10:09:12.058Z,-0.04
2023-01-21T10:12:14.902Z,-0.07
2023-01-21T10:14:58.355Z,-0.07
2023-01-21T10:17:55.450Z,-0.09
2023-01-21T10:20:34.189Z,-0.11
2023-01-21T10:23:14.302Z,-0.12
2023-01-21T10:25:44.724Z,-0.09
2023-01-21T10:28:25.431Z,-0.11
2023-01-21T10:30:55.534Z,-0.12
2023-01-21T10:33:26.686Z,-0.13
2023-01-21T10:36:12.830Z,-0.10
2023-01-21T10:39:01.914Z,-0.10
2023-01-21T10:41:36.377Z,-0.13
2023-01-21T10:44:34.088Z,-0.06
2023-01-21T10:47:08.217Z,-0.03
2023-01-21T10:50:15.664Z,-0.02
2023-01-21T10:52:54.360Z,0.01
2023-01-21T10:55:46.348Z,0.04
2023-01-21T10:58:32.796Z,0.07
2023-01-21T11:01:09.948Z,0.12
2023-01-21T11:03:41.564Z,0.10
2023-01-21T11:06:13.595Z,0.11
2023-01-21T11:08:46.402Z,0.11
2023-01-21T11:11:29.616Z,0.13
2023-01-21T11:13:57.886Z,0.13
2023-01-21T11:16:43.533Z,0.18
2023-01-21T11:19:12.647Z,0.18
2023-01-21T11:22:06.901Z,0.26
2023-01-21T11:24:45.244Z,0.23
2023-01-21T11:27:32.768Z,0.22
2023-01-21T11:30:01.415Z,0.20
2023-01-21T11:32:31.592Z,0.19
2023-01-21T11:35:18.306Z,0.19
2023-01-21T11:37:46.608Z,0.25
2023-01-21T11:40:25.994Z,0.25
2023-01-21T11:42:56.265Z,0.21
2023-01-21T11:45:27.134Z,0.21
2023-01-21T11:47:55.580Z,0.20
2023-01-21T11:50:39.855Z,0.20
2023-01-21T11:53:07.935Z,0.14
2023-01-21T11:55:44.797Z,0.14
2023-01-21T11:58:28.223Z,0.15
2023-01-21T12:01:00.303Z,0.13
2023-01-21T12:03:40.826Z,0.13
2023-01-21T12:06:10.665Z,0.14
2023-01-21T12:08:40.701Z,0.16
2023-01-21T12:11:09.181Z,0.16
2023-01-21T12:13:58.093Z,0.17
2023-01-21T12:16:38.297Z,0.15
2023-01-21T12:19:18.650Z,0.10
2023-01-21T12:21:53.670Z,0.09
2023-01-21T12:24:28.752Z,0.13
2023-01-21T12:27:02.565Z,0.11
2023-01-21T12:29:54.417Z,0.08
2023-01-21T12:32:34.640Z,0.11
2023-01-21T12:35:30.136Z,0.14
2023-01-21T12:38:04.389Z,0.13
2023-01-21T12:40:43.814Z,0.13
2023-01-21T12:43:45.347Z,0.15
2023-01-21T12:46:23.249Z,0.15
2023-01-21T12:48:56.556Z,0.16
2023-01-21T12:51:32.726Z,0.18
2023-01-21T12:54:08.932Z,0.18
2023-01-21T12:56:54.457Z,0.18
2023-01-21T12:59:29.914Z,0.18
2023-01-21T13:02:05.857Z,0.22
2023-01-21T13:04:46.113Z,0.29
2023-01-21T13:07:45.030Z,0.34
2023-01-21T13:10:33.387Z,0.35
2023-01-21T13:13:42.700Z,0.38
2023-01-21T13:16:11.794Z,0.37
2023-01-21T13:18:43.715Z,0.39
2023-01-21T13:21:20.489Z,0.41
2023-01-21T13:23:59.760Z,0.39
2023-01-21T13:26:39.608Z,0.38
2023-01-21T13:29:35.059Z,0.42
2023-01-21T13:32:22.738Z,0.46
2023-01-21T13:35:11.963Z,0.46
2023-01-21T13:38:01.278Z,0.49
2023-01-21T13:41:18.675Z,0.54
2023-01-21T13:44:23.804Z,0.55
2023-01-21T13:47:00.602Z,0.53
2023-01-21T13:49:57.565Z,0.52
2023-01-21T13:52:39.455Z,0.50
2023-01-21T13:55:22.422Z,0.48
2023-01-21T13:58:02.660Z,0.48
2023-01-21T14:00:46.558Z,0.46
2023-01-21T14:03:34.634Z,0.46
2023-01-21T14:06:05.585Z,0.48
2023-01-21T14:08:42.948Z,0.46
2023-01-21T14:11:10.824Z,0.48
2023-01-21T14:14:13.106Z,0.47
2023-01-21T14:17:20.393Z,0.44
2023-01-21T14:20:21.652Z,0.45
2023-01-21T14:22:52.911Z,0.42
2023-01-21T14:25:39.399Z,0.38
2023-01-21T14:28:43.276Z,0.38
2023-01-21T14:31:17.438Z,0.35
2023-01-21T14:34:03.437Z,0.35
2023-01-21T14:37:01.540Z,0.35
2023-01-21T14:39:37.526Z,0.37
2023-01-21T14:42:10.930Z,0.36
2023-01-21T14:44:51.425Z,0.35
2023-01-21T14:47:24.484Z,0.31
2023-01-21T14:49:54.218Z,0.29
2023-01-21T14:52:39.888Z,0.26
2023-01-21T14:55:30.793Z,0.25
2023-01-21T14:58:01.866Z,0.26
2023-01-21T15:00:33.798Z,0.24
2023-01-21T15:03:49.866Z,0.24
2023-01-21T15:06:22.722Z,0.24
2023-01-21T15:08:58.765Z,0.23
2023-01-21T15:11:30.396Z,0.21
2023-01-21T15:14:22.853Z,0.19
2023-01-21T15:16:51.248Z,0.15
2023-01-21T15:19:25.360Z,0.10
2023-01-21T15:21:59.154Z,0.11
2023-01-21T15:24:32.471Z,0.06
2023-01-21T15:27:12.913Z,0.06
2023-01-21T15:30:04.104Z,0.04
2023-01-21T15:32:50.205Z,0.07
2023-01-21T15:35:31.453Z,0.03
2023-01-21T15:38:02.654Z,0.04
2023-01-21T15:40:39.239Z,0.06
2023-01-21T15:43:30.543Z,0.04
2023-01-21T15:46:13.535Z,0.02
2023-01-21T15:49:15.667Z,0.06
2023-01-21T15:52:04.941Z,0.03
2023-01-21T15:54:44.988Z,0.03
2023-01-21T15:57:28.273Z,0.03
2023-01-21T16:00:20.789Z,-0.02
2023-01-21T16:03:33.389Z,-0.05
2023-01-21T16:06:15.233Z,-0.04
2023-01-21T16:09:02.808Z,-0.04
2023-01-21T16:11:40.648Z,-0.05
2023-01-21T16:14:13.689Z,-0.06
2023-01-21T16:17:20.927Z,-0.07
2023-01-21T16:19:52.100Z,-0.08
2023-01-21T16:22:25.037Z,-0.05
2023-01-21T16:24:59.567Z,-0.06
2023-01-21T16:27:31.071Z,-0.04
2023-01-21T16:30:01.688Z,0.00
2023-01-21T16:32:32.386Z,0.00
2023-01-21T16:35:00.819Z,0.01
2023-01-21T16:37:31.274Z,0.00
2023-01-21T16:40:20.910Z,-0.00
2023-01-21T16:43:07.454Z,-0.01
2023-01-21T16:45:35.424Z,-0.00
2023-01-21T16:48:03.568Z,0.01
2023-01-21T16:50:32.857Z,0.03
2023-01-21T16:53:07.966Z,0.03
2023-01-21T16:55:45.166Z,0.03
2023-01-21T16:58:34.348Z,0.05
2023-01-21T17:01:10.166Z,0.03
2023-01-21T17:03:38.725Z,0.03
2023-01-21T17:06:14.188Z,0.01
2023-01-21T17:08:48.220Z,-0.01
2023-01-21T17:11:16.218Z,0.01
2023-01-21T17:13:45.313Z,0.03
2023-01-21T17:16:34.206Z,0.04
2023-01-21T17:19:09.419Z,0.05
2023-01-21T17:21:44.700Z,0.04
2023-01-21T17:24:39.324Z,0.04
2023-01-21T17:27:10.251Z,0.02
2023-01-21T17:29:38.261Z,0.01
2023-01-21T17:32:24.539Z,-0.05
2023-01-21T17:35:07.495Z,0.01
2023-01-21T17:37:44.450Z,-0.00
2023-01-21T17:40:37.689Z,-0.01
2023-01-21T17:43:17.947Z,-0.03
2023-01-21T17:45:48.015Z,-0.02
2023-01-21T17:48:27.041Z,0.00
2023-01-21T17:50:56.312Z,-0.03
2023-01-21T17:53:28.990Z,0.00
2023-01-21T17:56:00.592Z,0.06
2023-01-21T17:58:31.534Z,0.10
2023-01-21T18:01:04.327Z,0.09
2023-01-21T18:03:32.336Z,0.10
2023-01-21T18:06:01.152Z,0.09
2023-01-21T18:08:29.195Z,0.09
2023-01-21T18:10:57.572Z,0.09
2023-01-21T18:13:25.589Z,0.06
2023-01-21T18:15:54.319Z,0.03
2023-01-21T18:18:28.555Z,0.03
2023-01-21T18:20:56.815Z,0.02
2023-01-21T18:23:24.706Z,0.02
2023-01-21T18:25:53.755Z,0.02
2023-01-21T18:28:25.249Z,0.03
2023-01-21T18:30:57.804Z,0.04
2023-01-21T18:33:26.213Z,0.05
2023-01-21T18:35:54.379Z,0.04
2023-01-21T18:38:30.635Z,0.08
2023-01-21T18:41:00.126Z,0.09
2023-01-21T18:43:28.177Z,0.10
2023-01-21T18:45:56.307Z,0.12
2023-01-21T18:48:29.891Z,0.11
2023-01-21T18:50:57.887Z,0.11
2023-01-21T18:53:25.996Z,0.10
2023-01-21T18:55:54.484Z,0.14
2023-01-21T18:58:22.480Z,0.12
2023-01-21T19:00:50.590Z,0.13
2023-01-21T19:03:18.492Z,0.12
2023-01-21T19:05:51.065Z,0.14
2023-01-21T19:08:24.865Z,0.15
2023-01-21T19:10:52.812Z,0.14
2023-01-21T19:13:21.000Z,0.14
2023-01-21T19:15:49.859Z,0.12
2023-01-21T19:18:17.895Z,0.13
2023-01-21T19:20:45.819Z,0.14
2023-01-21T19:23:17.001Z,0.13
2023-01-21T19:25:57.176Z,0.15
2023-01-21T19:28:25.492Z,0.17
2023-01-21T19:30:56.378Z,0.16
2023-01-21T19:33:25.715Z,0.18
2023-01-21T19:36:10.368Z,0.18
2023-01-21T19:38:38.406Z,0.17
2023-01-21T19:41:06.251Z,0.19
2023-01-21T19:43:34.353Z,0.21
2023-01-21T19:46:02.413Z,0.21
2023-01-21T19:48:30.371Z,0.23
2023-01-21T19:50:58.436Z,0.18
2023-01-21T19:53:26.360Z,0.21
2023-01-21T19:55:54.950Z,0.19
2023-01-21T19:58:27.929Z,0.19
2023-01-21T20:00:56.246Z,0.22
2023-01-21T20:03:27.097Z,0.24
2023-01-21T20:06:01.129Z,0.24
2023-01-21T20:08:30.583Z,0.26
2023-01-21T20:10:58.599Z,0.27
2023-01-21T20:13:31.331Z,0.26
2023-01-21T20:16:03.755Z,0.27
2023-01-21T20:18:34.575Z,0.27
2023-01-21T20:21:02.396Z,0.27
2023-01-21T20:23:32.753Z,0.25
2023-01-21T20:26:01.075Z,0.25
2023-01-21T20:28:44.501Z,0.27
2023-01-21T20:31:12.882Z,0.26
2023-01-21T20:33:42.513Z,0.27
2023-01-21T20:36:20.039Z,0.33
2023-01-21T20:38:48.668Z,0.32
2023-01-21T20:41:17.235Z,0.35
2023-01-21T20:43:45.605Z,0.37
2023-01-21T20:46:24.544Z,0.37
2023-01-21T20:48:53.066Z,0.38
2023-01-21T20:51:21.458Z,0.37
2023-01-21T20:53:49.460Z,0.35
2023-01-21T20:56:24.559Z,0.34
2023-01-21T20:58:52.568Z,0.32
2023-01-21T21:01:23.155Z,0.35
2023-01-21T21:03:51.697Z,0.35
2023-01-21T21:06:22.756Z,0.37
2023-01-21T21:08:51.489Z,0.37
2023-01-21T21:11:20.067Z,0.38
2023-01-21T21:13:52.327Z,0.38
2023-01-21T21:16:28.672Z,0.40
2023-01-21T21:18:56.827Z,0.42
2023-01-21T21:21:24.865Z,0.43
2023-01-21T21:23:53.396Z,0.41
2023-01-21T21:26:23.174Z,0.42
2023-01-21T21:28:55.858Z,0.40
2023-01-21T21:31:24.807Z,0.40
2023-01-21T21:33:52.855Z,0.39
2023-01-21T21:36:23.964Z,0.36
2023-01-21T21:38:56.048Z,0.33
2023-01-21T21:41:44.875Z,0.32
2023-01-21T21:44:13.547Z,0.32
2023-01-21T21:47:00.716Z,0.36
2023-01-21T21:49:29.265Z,0.41
2023-01-21T21:51:57.683Z,0.44
2023-01-21T21:54:25.758Z,0.47
2023-01-21T21:56:53.688Z,0.44
2023-01-21T21:59:21.625Z,0.43
2023-01-21T22:01:49.691Z,0.45
2023-01-21T22:04:17.636Z,0.45
2023-01-21T22:06:45.678Z,0.43
2023-01-21T22:09:13.745Z,0.44
2023-01-21T22:11:41.659Z,0.42
2023-01-21T22:14:09.575Z,0.41
2023-01-21T22:16:37.586Z,0.39
2023-01-21T22:19:05.884Z,0.33
2023-01-21T22:21:34.540Z,0.27
2023-01-21T22:24:08.289Z,0.29
2023-01-21T22:26:37.075Z,0.28
2023-01-21T22:29:05.581Z,0.27
2023-01-21T22:31:33.820Z,0.28
2023-01-21T22:34:02.011Z,0.28
2023-01-21T22:36:32.082Z,0.27
2023-01-21T22:39:00.173Z,0.27
2023-01-21T22:41:28.529Z,0.30
2023-01-21T22:43:57.158Z,0.30
2023-01-21T22:46:27.547Z,0.30
2023-01-21T22:48:56.056Z,0.29
2023-01-21T22:51:24.106Z,0.31
2023-01-21T22:53:53.061Z,0.31
2023-01-21T22:56:35.399Z,0.32
2023-01-21T22:59:08.281Z,0.33
2023-01-21T23:01:36.541Z,0.32
2023-01-21T23:04:04.704Z,0.35
2023-01-21T23:06:32.615Z,0.33
2023-01-21T23:09:00.641Z,0.31
2023-01-21T23:11:29.792Z,0.30
2023-01-21T23:13:57.810Z,0.30
2023-01-21T23:16:25.730Z,0.33
2023-01-21T23:18:53.779Z,0.31
2023-01-21T23:21:22.428Z,0.30
2023-01-21T23:23:50.437Z,0.31
2023-01-21T23:26:19.614Z,0.31
2023-01-21T23:28:47.731Z,0.32
2023-01-21T23:31:17.788Z,0.33
2023-01-21T23:33:49.943Z,0.33
2023-01-21T23:36:18.657Z,0.35
2023-01-21T23:38:46.575Z,0.33
2023-01-21T23:41:17.100Z,0.36
2023-01-21T23:43:45.366Z,0.37
2023-01-21T23:46:16.730Z,0.38
2023-01-21T23:48:45.543Z,0.39
2023-01-21T23:51:15.279Z,0.38
2023-01-21T23:53:43.371Z,0.39
2023-01-21T23:56:17.802Z,0.41
2023-01-21T23:58:45.850Z,0.41
